PWSweather.com
Personal Weather Stations
Station Observations
KNJEWING3
Ewing, NJ 08638

Ewing, NJ 08638

Lat: 40.25193, Lon: -74.77511

Elevation: 106

Station Type: Oregon Scientific WMR968 / SRS100 Solar Radiation Shield. Rain Data At www.cocorahs.org (NJ-MC-11)

Latest ConditionsUpdated 9:57:02 AM EDT Monday, Jul 25, 2016
Currently Today's Max Today's Min Today's Average
Temperature 76.9°F24.9°C 78.7°F25.9°C 72.6°F22.6°C 76.0°F24.4°C
Dew Point 76.3°F24.6°C 76.3°F24.6°C 47.4°F8.6°C 58.7°F14.8°C
Winds 3.2 mph SW5.1 kmh SW 10.5 mph W16.9 kmh W - 0.7 mph 1.1 kmh
Wind Gusts 5.4 mph8.7 kmh 12.6 mph20.3 kmh - -
Humidity 98% 98% 34% 60%
Pressure 30.89 in1046.1 mb 30.94 in1047.7 mb 30.89 in1046.1 mb -
Hour Temp Dew Point Humidity Winds Wind Gusts Pressure Precip Precip Rate Daily Precip Total
09:57 AM 76.9°F24.9°C 76.3°F24.6°C 98% 3.2 mph SW5.1 kmh SW 5.4 mph8.7 kmh 30.89 in1046.1 mb 0.00 in0.0 mm 0.00 in0.0 mm 0.00 in0.0 mm
09:55 AM 76.7°F24.8°C 76.1°F24.5°C 98% 4.8 mph W7.7 kmh W 5.4 mph8.7 kmh 30.89 in1046.1 mb 0.00 in0.0 mm 0.00 in0.0 mm 0.00 in0.0 mm
09:54 AM 76.5°F24.7°C 75.9°F24.4°C 98% 4.8 mph SW7.7 kmh SW 6.4 mph10.3 kmh 30.89 in1046.1 mb 0.00 in0.0 mm 0.00 in0.0 mm 0.00 in0.0 mm
09:52 AM 76.4°F24.7°C 75.8°F24.3°C 98% Calm Calm 6.4 mph10.3 kmh 30.89 in1046.1 mb 0.00 in0.0 mm 0.00 in0.0 mm 0.00 in0.0 mm
09:51 AM 76.4°F24.7°C 75.8°F24.3°C 98% 4.8 mph SW7.7 kmh SW 6.4 mph10.3 kmh 30.89 in1046.1 mb 0.00 in0.0 mm 0.00 in0.0 mm 0.00 in0.0 mm
09:50 AM 76.2°F24.6°C 75.6°F24.2°C 98% Calm Calm 6.4 mph10.3 kmh 30.89 in1046.1 mb 0.00 in0.0 mm 0.00 in0.0 mm 0.00 in0.0 mm
09:48 AM 76.2°F24.6°C 75.6°F24.2°C 98% Calm Calm 6.4 mph10.3 kmh 30.89 in1046.1 mb 0.00 in0.0 mm 0.00 in0.0 mm 0.00 in0.0 mm
09:47 AM 76.4°F24.7°C 75.8°F24.3°C 98% 6.4 mph WSW10.3 kmh WSW 6.4 mph10.3 kmh 30.89 in1046.1 mb 0.00 in0.0 mm 0.00 in0.0 mm 0.00 in0.0 mm
09:46 AM 76.4°F24.7°C 75.8°F24.3°C 98% 4.3 mph SW6.9 kmh SW 4.8 mph7.7 kmh 30.89 in1046.1 mb 0.00 in0.0 mm 0.00 in0.0 mm 0.00 in0.0 mm
09:45 AM 76.2°F24.6°C 75.6°F24.2°C 98% Calm Calm 4.8 mph7.7 kmh 30.89 in1046.1 mb 0.00 in0.0 mm 0.00 in0.0 mm 0.00 in0.0 mm
09:43 AM 76.2°F24.6°C 75.6°F24.2°C 98% 3.2 mph SW5.1 kmh SW 4.8 mph7.7 kmh 30.89 in1046.1 mb 0.00 in0.0 mm 0.00 in0.0 mm 0.00 in0.0 mm
09:41 AM 76.0°F24.4°C 75.4°F24.1°C 98% 2.7 mph WSW4.3 kmh WSW 4.3 mph6.9 kmh 30.89 in1046.1 mb 0.00 in0.0 mm 0.00 in0.0 mm 0.00 in0.0 mm
09:40 AM 76.0°F24.4°C 75.4°F24.1°C 98% Calm Calm 4.3 mph6.9 kmh 30.89 in1046.1 mb 0.00 in0.0 mm 0.00 in0.0 mm 0.00 in0.0 mm
09:38 AM 76.0°F24.4°C 75.4°F24.1°C 98% 3.8 mph WSW6.1 kmh WSW 4.3 mph6.9 kmh 30.89 in1046.1 mb 0.00 in0.0 mm 0.00 in0.0 mm 0.00 in0.0 mm
09:37 AM 75.8°F24.3°C 75.2°F24.0°C 98% Calm Calm 3.8 mph6.1 kmh 30.89 in1046.1 mb 0.00 in0.0 mm 0.00 in0.0 mm 0.00 in0.0 mm
09:36 AM 75.6°F24.2°C 75.0°F23.9°C 98% Calm Calm 6.4 mph10.3 kmh 30.89 in1046.1 mb 0.00 in0.0 mm 0.00 in0.0 mm 0.00 in0.0 mm
09:33 AM 75.3°F24.1°C 74.7°F23.7°C 98% 3.2 mph WSW5.1 kmh WSW 6.4 mph10.3 kmh 30.89 in1046.1 mb 0.00 in0.0 mm 0.00 in0.0 mm 0.00 in0.0 mm
09:32 AM 75.3°F24.1°C 74.7°F23.7°C 98% Calm Calm 6.4 mph10.3 kmh 30.89 in1046.1 mb 0.00 in0.0 mm 0.00 in0.0 mm 0.00 in0.0 mm
09:30 AM 75.3°F24.1°C 74.7°F23.7°C 98% 3.8 mph SW6.1 kmh SW 6.4 mph10.3 kmh 30.89 in1046.1 mb 0.00 in0.0 mm 0.00 in0.0 mm 0.00 in0.0 mm
09:29 AM 75.1°F23.9°C 74.5°F23.6°C 98% Calm Calm 4.8 mph7.7 kmh 30.91 in1046.7 mb 0.00 in0.0 mm 0.00 in0.0 mm 0.00 in0.0 mm
09:28 AM 75.1°F23.9°C 74.5°F23.6°C 98% Calm Calm 4.8 mph7.7 kmh 30.91 in1046.7 mb 0.00 in0.0 mm 0.00 in0.0 mm 0.00 in0.0 mm
09:27 AM 75.1°F23.9°C 74.5°F23.6°C 98% 4.8 mph WSW7.7 kmh WSW 4.8 mph7.7 kmh 30.91 in1046.7 mb 0.00 in0.0 mm 0.00 in0.0 mm 0.00 in0.0 mm
09:26 AM 74.9°F23.8°C 74.3°F23.5°C 98% Calm Calm -- 30.91 in1046.7 mb 0.00 in0.0 mm 0.00 in0.0 mm 0.00 in0.0 mm
09:22 AM 74.7°F23.7°C 73.8°F23.2°C 97% Calm Calm 4.8 mph7.7 kmh 30.91 in1046.7 mb 0.00 in0.0 mm 0.00 in0.0 mm 0.00 in0.0 mm
09:21 AM 74.7°F23.7°C 73.8°F23.2°C 97% Calm Calm 4.8 mph7.7 kmh 30.91 in1046.7 mb 0.00 in0.0 mm 0.00 in0.0 mm 0.00 in0.0 mm
09:19 AM 74.7°F23.7°C 73.8°F23.2°C 97% Calm Calm 4.8 mph7.7 kmh 30.91 in1046.7 mb 0.00 in0.0 mm 0.00 in0.0 mm 0.00 in0.0 mm
09:18 AM 74.7°F23.7°C 73.8°F23.2°C 97% Calm Calm 4.8 mph7.7 kmh 30.91 in1046.7 mb 0.00 in0.0 mm 0.00 in0.0 mm 0.00 in0.0 mm
09:16 AM 74.7°F23.7°C 73.8°F23.2°C 97% Calm Calm 4.8 mph7.7 kmh 30.91 in1046.7 mb 0.00 in0.0 mm 0.00 in0.0 mm 0.00 in0.0 mm
09:15 AM 74.7°F23.7°C 73.8°F23.2°C 97% 3.8 mph SW6.1 kmh SW 4.3 mph6.9 kmh 30.91 in1046.7 mb 0.00 in0.0 mm 0.00 in0.0 mm 0.00 in0.0 mm
09:14 AM 74.7°F23.7°C 73.8°F23.2°C 97% Calm Calm -- 30.91 in1046.7 mb 0.00 in0.0 mm 0.00 in0.0 mm 0.00 in0.0 mm
09:12 AM 74.7°F23.7°C 73.8°F23.2°C 97% Calm Calm -- 30.91 in1046.7 mb 0.00 in0.0 mm 0.00 in0.0 mm 0.00 in0.0 mm
09:11 AM 74.7°F23.7°C 73.8°F23.2°C 97% Calm Calm -- 30.91 in1046.7 mb 0.00 in0.0 mm 0.00 in0.0 mm 0.00 in0.0 mm
09:09 AM 74.4°F23.6°C 73.5°F23.1°C 97% Calm Calm -- 30.91 in1046.7 mb 0.00 in0.0 mm 0.00 in0.0 mm 0.00 in0.0 mm
09:08 AM 74.4°F23.6°C 73.5°F23.1°C 97% Calm Calm -- 30.91 in1046.7 mb 0.00 in0.0 mm 0.00 in0.0 mm 0.00 in0.0 mm
09:06 AM 74.4°F23.6°C 73.2°F22.9°C 96% Calm Calm -- 30.91 in1046.7 mb 0.00 in0.0 mm 0.00 in0.0 mm 0.00 in0.0 mm
09:05 AM 74.4°F23.6°C 73.2°F22.9°C 96% Calm Calm -- 30.91 in1046.7 mb 0.00 in0.0 mm 0.00 in0.0 mm 0.00 in0.0 mm
09:04 AM 74.4°F23.6°C 73.5°F23.1°C 97% Calm Calm -- 30.91 in1046.7 mb 0.00 in0.0 mm 0.00 in0.0 mm 0.00 in0.0 mm
09:02 AM 74.6°F23.7°C 73.7°F23.2°C 97% Calm Calm -- 30.91 in1046.7 mb 0.00 in0.0 mm 0.00 in0.0 mm 0.00 in0.0 mm
09:01 AM 74.6°F23.7°C 73.7°F23.2°C 97% Calm Calm -- 30.91 in1046.7 mb 0.00 in0.0 mm 0.00 in0.0 mm 0.00 in0.0 mm
08:59 AM 74.6°F23.7°C 73.7°F23.2°C 97% Calm Calm -- 30.91 in1046.7 mb 0.00 in0.0 mm 0.00 in0.0 mm 0.00 in0.0 mm
08:58 AM 74.4°F23.6°C 73.5°F23.1°C 97% Calm Calm -- 30.91 in1046.7 mb 0.00 in0.0 mm 0.00 in0.0 mm 0.00 in0.0 mm
08:56 AM 74.4°F23.6°C 73.5°F23.1°C 97% Calm Calm -- 30.91 in1046.7 mb 0.00 in0.0 mm 0.00 in0.0 mm 0.00 in0.0 mm
08:55 AM 74.2°F23.4°C 73.3°F22.9°C 97% Calm Calm -- 30.91 in1046.7 mb 0.00 in0.0 mm 0.00 in0.0 mm 0.00 in0.0 mm
08:54 AM 74.2°F23.4°C 73.3°F22.9°C 97% Calm Calm -- 30.91 in1046.7 mb 0.00 in0.0 mm 0.00 in0.0 mm 0.00 in0.0 mm
08:52 AM 74.2°F23.4°C 73.0°F22.8°C 96% Calm Calm -- 30.91 in1046.7 mb 0.00 in0.0 mm 0.00 in0.0 mm 0.00 in0.0 mm
08:51 AM 74.2°F23.4°C 73.0°F22.8°C 96% Calm Calm -- 30.91 in1046.7 mb 0.00 in0.0 mm 0.00 in0.0 mm 0.00 in0.0 mm
08:50 AM 74.0°F23.3°C 73.1°F22.8°C 97% Calm Calm -- 30.91 in1046.7 mb 0.00 in0.0 mm 0.00 in0.0 mm 0.00 in0.0 mm
08:48 AM 74.0°F23.3°C 73.1°F22.8°C 97% Calm Calm -- 30.91 in1046.7 mb 0.00 in0.0 mm 0.00 in0.0 mm 0.00 in0.0 mm
08:47 AM 74.0°F23.3°C 73.1°F22.8°C 97% Calm Calm -- 30.91 in1046.7 mb 0.00 in0.0 mm 0.00 in0.0 mm 0.00 in0.0 mm
08:45 AM 74.0°F23.3°C 73.1°F22.8°C 97% Calm Calm -- 30.91 in1046.7 mb 0.00 in0.0 mm 0.00 in0.0 mm 0.00 in0.0 mm
08:44 AM 74.0°F23.3°C 72.8°F22.7°C 96% Calm Calm -- 30.91 in1046.7 mb 0.00 in0.0 mm 0.00 in0.0 mm 0.00 in0.0 mm
08:43 AM 74.0°F23.3°C 72.8°F22.7°C 96% Calm Calm -- 30.91 in1046.7 mb 0.00 in0.0 mm 0.00 in0.0 mm 0.00 in0.0 mm
08:41 AM 74.0°F23.3°C 72.8°F22.7°C 96% Calm Calm -- 30.91 in1046.7 mb 0.00 in0.0 mm 0.00 in0.0 mm 0.00 in0.0 mm
08:40 AM 74.0°F23.3°C 72.8°F22.7°C 96% Calm Calm -- 30.91 in1046.7 mb 0.00 in0.0 mm 0.00 in0.0 mm 0.00 in0.0 mm
08:38 AM 74.0°F23.3°C 72.8°F22.7°C 96% Calm Calm -- 30.91 in1046.7 mb 0.00 in0.0 mm 0.00 in0.0 mm 0.00 in0.0 mm
08:37 AM 74.0°F23.3°C 72.8°F22.7°C 96% Calm Calm -- 30.91 in1046.7 mb 0.00 in0.0 mm 0.00 in0.0 mm 0.00 in0.0 mm
08:36 AM 74.0°F23.3°C 72.8°F22.7°C 96% Calm Calm -- 30.91 in1046.7 mb 0.00 in0.0 mm 0.00 in0.0 mm 0.00 in0.0 mm
08:34 AM 74.0°F23.3°C 72.8°F22.7°C 96% Calm Calm -- 30.91 in1046.7 mb 0.00 in0.0 mm 0.00 in0.0 mm 0.00 in0.0 mm
08:33 AM 74.0°F23.3°C 72.8°F22.7°C 96% Calm Calm -- 30.91 in1046.7 mb 0.00 in0.0 mm 0.00 in0.0 mm 0.00 in0.0 mm
08:31 AM 74.0°F23.3°C 72.8°F22.7°C 96% Calm Calm -- 30.91 in1046.7 mb 0.00 in0.0 mm 0.00 in0.0 mm 0.00 in0.0 mm
08:30 AM 74.0°F23.3°C 72.8°F22.7°C 96% Calm Calm -- 30.91 in1046.7 mb 0.00 in0.0 mm 0.00 in0.0 mm 0.00 in0.0 mm
08:29 AM 74.0°F23.3°C 72.8°F22.7°C 96% Calm Calm -- 30.91 in1046.7 mb 0.00 in0.0 mm 0.00 in0.0 mm 0.00 in0.0 mm
08:27 AM 74.0°F23.3°C 72.8°F22.7°C 96% Calm Calm -- 30.91 in1046.7 mb 0.00 in0.0 mm 0.00 in0.0 mm 0.00 in0.0 mm
08:26 AM 74.0°F23.3°C 72.8°F22.7°C 96% Calm Calm -- 30.91 in1046.7 mb 0.00 in0.0 mm 0.00 in0.0 mm 0.00 in0.0 mm
08:24 AM 74.0°F23.3°C 72.8°F22.7°C 96% Calm Calm -- 30.91 in1046.7 mb 0.00 in0.0 mm 0.00 in0.0 mm 0.00 in0.0 mm
08:23 AM 73.8°F23.2°C 72.6°F22.6°C 96% Calm Calm -- 30.91 in1046.7 mb 0.00 in0.0 mm 0.00 in0.0 mm 0.00 in0.0 mm
08:21 AM 73.8°F23.2°C 72.6°F22.6°C 96% Calm Calm -- 30.91 in1046.7 mb 0.00 in0.0 mm 0.00 in0.0 mm 0.00 in0.0 mm
08:19 AM 73.8°F23.2°C 72.6°F22.6°C 96% Calm Calm -- 30.91 in1046.7 mb 0.00 in0.0 mm 0.00 in0.0 mm 0.00 in0.0 mm
08:17 AM 73.8°F23.2°C 72.6°F22.6°C 96% Calm Calm -- 30.91 in1046.7 mb 0.00 in0.0 mm 0.00 in0.0 mm 0.00 in0.0 mm
08:16 AM 73.7°F23.2°C 72.5°F22.5°C 96% Calm Calm -- 30.91 in1046.7 mb 0.00 in0.0 mm 0.00 in0.0 mm 0.00 in0.0 mm
08:15 AM 73.7°F23.2°C 72.5°F22.5°C 96% Calm Calm -- 30.91 in1046.7 mb 0.00 in0.0 mm 0.00 in0.0 mm 0.00 in0.0 mm
08:13 AM 73.7°F23.2°C 72.5°F22.5°C 96% Calm Calm -- 30.89 in1046.1 mb 0.00 in0.0 mm 0.00 in0.0 mm 0.00 in0.0 mm
08:12 AM 73.5°F23.1°C 72.0°F22.2°C 95% Calm Calm -- 30.89 in1046.1 mb 0.00 in0.0 mm 0.00 in0.0 mm 0.00 in0.0 mm
08:10 AM 73.5°F23.1°C 72.0°F22.2°C 95% Calm Calm -- 30.89 in1046.1 mb 0.00 in0.0 mm 0.00 in0.0 mm 0.00 in0.0 mm
08:09 AM 73.3°F22.9°C 71.8°F22.1°C 95% Calm Calm -- 30.89 in1046.1 mb 0.00 in0.0 mm 0.00 in0.0 mm 0.00 in0.0 mm
08:07 AM 73.3°F22.9°C 71.8°F22.1°C 95% Calm Calm -- 30.89 in1046.1 mb 0.00 in0.0 mm 0.00 in0.0 mm 0.00 in0.0 mm
08:06 AM 73.3°F22.9°C 71.8°F22.1°C 95% Calm Calm -- 30.89 in1046.1 mb 0.00 in0.0 mm 0.00 in0.0 mm 0.00 in0.0 mm
08:05 AM 73.3°F22.9°C 71.8°F22.1°C 95% Calm Calm -- 30.89 in1046.1 mb 0.00 in0.0 mm 0.00 in0.0 mm 0.00 in0.0 mm
08:03 AM 73.3°F22.9°C 71.8°F22.1°C 95% Calm Calm -- 30.89 in1046.1 mb 0.00 in0.0 mm 0.00 in0.0 mm 0.00 in0.0 mm
08:02 AM 73.3°F22.9°C 71.8°F22.1°C 95% Calm Calm -- 30.89 in1046.1 mb 0.00 in0.0 mm 0.00 in0.0 mm 0.00 in0.0 mm
08:01 AM 73.3°F22.9°C 71.8°F22.1°C 95% Calm Calm -- 30.89 in1046.1 mb 0.00 in0.0 mm 0.00 in0.0 mm 0.00 in0.0 mm
08:00 AM 73.3°F22.9°C 71.8°F22.1°C 95% Calm Calm -- 30.89 in1046.1 mb 0.00 in0.0 mm 0.00 in0.0 mm 0.00 in0.0 mm
07:58 AM 73.3°F22.9°C 71.5°F21.9°C 94% Calm Calm -- 30.89 in1046.1 mb 0.00 in0.0 mm 0.00 in0.0 mm 0.00 in0.0 mm
07:56 AM 73.3°F22.9°C 71.5°F21.9°C 94% Calm Calm -- 30.89 in1046.1 mb 0.00 in0.0 mm 0.00 in0.0 mm 0.00 in0.0 mm
07:55 AM 73.3°F22.9°C 71.5°F21.9°C 94% Calm Calm -- 30.89 in1046.1 mb 0.00 in0.0 mm 0.00 in0.0 mm 0.00 in0.0 mm
07:53 AM 73.1°F22.8°C 71.3°F21.8°C 94% Calm Calm -- 30.89 in1046.1 mb 0.00 in0.0 mm 0.00 in0.0 mm 0.00 in0.0 mm
07:52 AM 73.1°F22.8°C 71.3°F21.8°C 94% Calm Calm -- 30.89 in1046.1 mb 0.00 in0.0 mm 0.00 in0.0 mm 0.00 in0.0 mm
07:51 AM 73.1°F22.8°C 71.3°F21.8°C 94% Calm Calm -- 30.89 in1046.1 mb 0.00 in0.0 mm 0.00 in0.0 mm 0.00 in0.0 mm
07:49 AM 73.1°F22.8°C 71.3°F21.8°C 94% Calm Calm -- 30.89 in1046.1 mb 0.00 in0.0 mm 0.00 in0.0 mm 0.00 in0.0 mm
07:48 AM 73.1°F22.8°C 71.3°F21.8°C 94% Calm Calm -- 30.89 in1046.1 mb 0.00 in0.0 mm 0.00 in0.0 mm 0.00 in0.0 mm
07:46 AM 73.1°F22.8°C 71.3°F21.8°C 94% Calm Calm -- 30.89 in1046.1 mb 0.00 in0.0 mm 0.00 in0.0 mm 0.00 in0.0 mm
07:44 AM 72.9°F22.7°C 71.1°F21.7°C 94% Calm Calm -- 30.89 in1046.1 mb 0.00 in0.0 mm 0.00 in0.0 mm 0.00 in0.0 mm
07:42 AM 72.9°F22.7°C 71.1°F21.7°C 94% Calm Calm -- 30.89 in1046.1 mb 0.00 in0.0 mm 0.00 in0.0 mm 0.00 in0.0 mm
07:41 AM 72.9°F22.7°C 71.1°F21.7°C 94% Calm Calm -- 30.89 in1046.1 mb 0.00 in0.0 mm 0.00 in0.0 mm 0.00 in0.0 mm
07:39 AM 72.8°F22.7°C 70.9°F21.6°C 94% Calm Calm -- 30.89 in1046.1 mb 0.00 in0.0 mm 0.00 in0.0 mm 0.00 in0.0 mm
07:38 AM 72.8°F22.7°C 70.9°F21.6°C 94% Calm Calm -- 30.89 in1046.1 mb 0.00 in0.0 mm 0.00 in0.0 mm 0.00 in0.0 mm
07:37 AM 72.8°F22.7°C 70.6°F21.4°C 93% Calm Calm -- 30.89 in1046.1 mb 0.00 in0.0 mm 0.00 in0.0 mm 0.00 in0.0 mm
07:36 AM 72.8°F22.7°C 70.6°F21.4°C 93% Calm Calm -- 30.89 in1046.1 mb 0.00 in0.0 mm 0.00 in0.0 mm 0.00 in0.0 mm
07:34 AM 72.8°F22.7°C 70.6°F21.4°C 93% Calm Calm -- 30.89 in1046.1 mb 0.00 in0.0 mm 0.00 in0.0 mm 0.00 in0.0 mm
07:32 AM 72.8°F22.7°C 70.6°F21.4°C 93% Calm Calm -- 30.89 in1046.1 mb 0.00 in0.0 mm 0.00 in0.0 mm 0.00 in0.0 mm
07:31 AM 72.6°F22.6°C 70.4°F21.3°C 93% Calm Calm -- 30.89 in1046.1 mb 0.00 in0.0 mm 0.00 in0.0 mm 0.00 in0.0 mm
07:30 AM 72.6°F22.6°C 70.4°F21.3°C 93% Calm Calm -- 30.89 in1046.1 mb 0.00 in0.0 mm 0.00 in0.0 mm 0.00 in0.0 mm
07:28 AM 72.6°F22.6°C 70.4°F21.3°C 93% Calm Calm -- 30.91 in1046.7 mb 0.00 in0.0 mm 0.00 in0.0 mm 0.00 in0.0 mm
07:27 AM 72.6°F22.6°C 70.4°F21.3°C 93% Calm Calm -- 30.91 in1046.7 mb 0.00 in0.0 mm 0.00 in0.0 mm 0.00 in0.0 mm
07:25 AM 72.6°F22.6°C 70.4°F21.3°C 93% Calm Calm -- 30.91 in1046.7 mb 0.00 in0.0 mm 0.00 in0.0 mm 0.00 in0.0 mm
07:24 AM 72.6°F22.6°C 70.4°F21.3°C 93% Calm Calm -- 30.91 in1046.7 mb 0.00 in0.0 mm 0.00 in0.0 mm 0.00 in0.0 mm
07:23 AM 72.6°F22.6°C 70.4°F21.3°C 93% Calm Calm -- 30.91 in1046.7 mb 0.00 in0.0 mm 0.00 in0.0 mm 0.00 in0.0 mm
07:21 AM 72.6°F22.6°C 70.4°F21.3°C 93% Calm Calm -- 30.91 in1046.7 mb 0.00 in0.0 mm 0.00 in0.0 mm 0.00 in0.0 mm
07:20 AM 72.6°F22.6°C 70.1°F21.2°C 92% Calm Calm -- 30.91 in1046.7 mb 0.00 in0.0 mm 0.00 in0.0 mm 0.00 in0.0 mm
07:18 AM 72.6°F22.6°C 70.1°F21.2°C 92% Calm Calm -- 30.91 in1046.7 mb 0.00 in0.0 mm 0.00 in0.0 mm 0.00 in0.0 mm
07:17 AM 72.6°F22.6°C 70.1°F21.2°C 92% Calm Calm -- 30.91 in1046.7 mb 0.00 in0.0 mm 0.00 in0.0 mm 0.00 in0.0 mm
07:16 AM 72.6°F22.6°C 70.1°F21.2°C 92% Calm Calm -- 30.91 in1046.7 mb 0.00 in0.0 mm 0.00 in0.0 mm 0.00 in0.0 mm
07:15 AM 72.6°F22.6°C 70.1°F21.2°C 92% Calm Calm -- 30.91 in1046.7 mb 0.00 in0.0 mm 0.00 in0.0 mm 0.00 in0.0 mm
07:13 AM 72.6°F22.6°C 70.1°F21.2°C 92% Calm Calm -- 30.91 in1046.7 mb 0.00 in0.0 mm 0.00 in0.0 mm 0.00 in0.0 mm
07:11 AM 72.6°F22.6°C 70.1°F21.2°C 92% Calm Calm -- 30.91 in1046.7 mb 0.00 in0.0 mm 0.00 in0.0 mm 0.00 in0.0 mm
07:10 AM 72.6°F22.6°C 70.1°F21.2°C 92% Calm Calm -- 30.91 in1046.7 mb 0.00 in0.0 mm 0.00 in0.0 mm 0.00 in0.0 mm
07:09 AM 72.6°F22.6°C 69.8°F21.0°C 91% Calm Calm -- 30.91 in1046.7 mb 0.00 in0.0 mm 0.00 in0.0 mm 0.00 in0.0 mm
07:08 AM 72.6°F22.6°C 69.8°F21.0°C 91% Calm Calm -- 30.91 in1046.7 mb 0.00 in0.0 mm 0.00 in0.0 mm 0.00 in0.0 mm
07:07 AM 72.6°F22.6°C 69.8°F21.0°C 91% Calm Calm -- 30.91 in1046.7 mb 0.00 in0.0 mm 0.00 in0.0 mm 0.00 in0.0 mm
07:06 AM 72.6°F22.6°C 69.8°F21.0°C 91% Calm Calm -- 30.91 in1046.7 mb 0.00 in0.0 mm 0.00 in0.0 mm 0.00 in0.0 mm
07:04 AM 72.6°F22.6°C 69.8°F21.0°C 91% Calm Calm -- 30.91 in1046.7 mb 0.00 in0.0 mm 0.00 in0.0 mm 0.00 in0.0 mm
07:03 AM 72.6°F22.6°C 69.5°F20.8°C 90% Calm Calm -- 30.91 in1046.7 mb 0.00 in0.0 mm 0.00 in0.0 mm 0.00 in0.0 mm
07:02 AM 72.8°F22.7°C 69.7°F20.9°C 90% Calm Calm -- 30.91 in1046.7 mb 0.00 in0.0 mm 0.00 in0.0 mm 0.00 in0.0 mm
07:00 AM 72.8°F22.7°C 69.7°F20.9°C 90% Calm Calm -- 30.91 in1046.7 mb 0.00 in0.0 mm 0.00 in0.0 mm 0.00 in0.0 mm
06:59 AM 72.8°F22.7°C 69.7°F20.9°C 90% Calm Calm -- 30.91 in1046.7 mb 0.00 in0.0 mm 0.00 in0.0 mm 0.00 in0.0 mm
06:57 AM 72.8°F22.7°C 69.7°F20.9°C 90% Calm Calm -- 30.91 in1046.7 mb 0.00 in0.0 mm 0.00 in0.0 mm 0.00 in0.0 mm
06:56 AM 72.8°F22.7°C 69.7°F20.9°C 90% Calm Calm -- 30.91 in1046.7 mb 0.00 in0.0 mm 0.00 in0.0 mm 0.00 in0.0 mm
06:55 AM 72.8°F22.7°C 69.7°F20.9°C 90% Calm Calm -- 30.91 in1046.7 mb 0.00 in0.0 mm 0.00 in0.0 mm 0.00 in0.0 mm
06:53 AM 72.8°F22.7°C 69.3°F20.7°C 89% Calm Calm -- 30.91 in1046.7 mb 0.00 in0.0 mm 0.00 in0.0 mm 0.00 in0.0 mm
06:52 AM 72.8°F22.7°C 69.3°F20.7°C 89% Calm Calm -- 30.91 in1046.7 mb 0.00 in0.0 mm 0.00 in0.0 mm 0.00 in0.0 mm
06:51 AM 72.8°F22.7°C 69.3°F20.7°C 89% Calm Calm -- 30.91 in1046.7 mb 0.00 in0.0 mm 0.00 in0.0 mm 0.00 in0.0 mm
06:49 AM 72.8°F22.7°C 69.0°F20.6°C 88% Calm Calm -- 30.91 in1046.7 mb 0.00 in0.0 mm 0.00 in0.0 mm 0.00 in0.0 mm
06:48 AM 72.8°F22.7°C 69.0°F20.6°C 88% Calm Calm -- 30.91 in1046.7 mb 0.00 in0.0 mm 0.00 in0.0 mm 0.00 in0.0 mm
06:46 AM 72.8°F22.7°C 69.0°F20.6°C 88% Calm Calm -- 30.91 in1046.7 mb 0.00 in0.0 mm 0.00 in0.0 mm 0.00 in0.0 mm
06:45 AM 72.8°F22.7°C 69.0°F20.6°C 88% Calm Calm -- 30.91 in1046.7 mb 0.00 in0.0 mm 0.00 in0.0 mm 0.00 in0.0 mm
06:43 AM 72.8°F22.7°C 68.7°F20.4°C 87% Calm Calm -- 30.91 in1046.7 mb 0.00 in0.0 mm 0.00 in0.0 mm 0.00 in0.0 mm
06:42 AM 72.8°F22.7°C 68.7°F20.4°C 87% Calm Calm -- 30.91 in1046.7 mb 0.00 in0.0 mm 0.00 in0.0 mm 0.00 in0.0 mm
06:41 AM 72.8°F22.7°C 68.7°F20.4°C 87% Calm Calm -- 30.91 in1046.7 mb 0.00 in0.0 mm 0.00 in0.0 mm 0.00 in0.0 mm
06:39 AM 72.8°F22.7°C 68.7°F20.4°C 87% Calm Calm -- 30.91 in1046.7 mb 0.00 in0.0 mm 0.00 in0.0 mm 0.00 in0.0 mm
06:38 AM 72.8°F22.7°C 68.3°F20.2°C 86% Calm Calm -- 30.91 in1046.7 mb 0.00 in0.0 mm 0.00 in0.0 mm 0.00 in0.0 mm
06:37 AM 72.8°F22.7°C 68.3°F20.2°C 86% Calm Calm 3.8 mph6.1 kmh 30.91 in1046.7 mb 0.00 in0.0 mm 0.00 in0.0 mm 0.00 in0.0 mm
06:35 AM 72.8°F22.7°C 68.0°F20.0°C 85% Calm Calm 3.8 mph6.1 kmh 30.91 in1046.7 mb 0.00 in0.0 mm 0.00 in0.0 mm 0.00 in0.0 mm
06:34 AM 72.8°F22.7°C 68.0°F20.0°C 85% Calm Calm 3.8 mph6.1 kmh 30.91 in1046.7 mb 0.00 in0.0 mm 0.00 in0.0 mm 0.00 in0.0 mm
06:32 AM 72.8°F22.7°C 67.7°F19.8°C 84% Calm Calm 3.8 mph6.1 kmh 30.91 in1046.7 mb 0.00 in0.0 mm 0.00 in0.0 mm 0.00 in0.0 mm
06:31 AM 72.8°F22.7°C 67.7°F19.8°C 84% Calm Calm 3.8 mph6.1 kmh 30.91 in1046.7 mb 0.00 in0.0 mm 0.00 in0.0 mm 0.00 in0.0 mm
06:30 AM 72.8°F22.7°C 67.7°F19.8°C 84% Calm Calm -- 30.91 in1046.7 mb 0.00 in0.0 mm 0.00 in0.0 mm 0.00 in0.0 mm
06:28 AM 72.8°F22.7°C 67.3°F19.6°C 83% Calm Calm -- 30.91 in1046.7 mb 0.00 in0.0 mm 0.00 in0.0 mm 0.00 in0.0 mm
06:27 AM 72.8°F22.7°C 67.3°F19.6°C 83% Calm Calm -- 30.91 in1046.7 mb 0.00 in0.0 mm 0.00 in0.0 mm 0.00 in0.0 mm
06:25 AM 72.8°F22.7°C 67.3°F19.6°C 83% Calm Calm -- 30.91 in1046.7 mb 0.00 in0.0 mm 0.00 in0.0 mm 0.00 in0.0 mm
06:24 AM 72.8°F22.7°C 67.0°F19.4°C 82% Calm Calm -- 30.91 in1046.7 mb 0.00 in0.0 mm 0.00 in0.0 mm 0.00 in0.0 mm
06:22 AM 72.8°F22.7°C 67.0°F19.4°C 82% Calm Calm -- 30.91 in1046.7 mb 0.00 in0.0 mm 0.00 in0.0 mm 0.00 in0.0 mm
06:20 AM 72.6°F22.6°C 66.4°F19.1°C 81% Calm Calm 3.2 mph5.1 kmh 30.91 in1046.7 mb 0.00 in0.0 mm 0.00 in0.0 mm 0.00 in0.0 mm
06:18 AM 72.6°F22.6°C 66.4°F19.1°C 81% Calm Calm 3.2 mph5.1 kmh 30.91 in1046.7 mb 0.00 in0.0 mm 0.00 in0.0 mm 0.00 in0.0 mm
06:17 AM 72.6°F22.6°C 66.1°F18.9°C 80% Calm Calm 3.2 mph5.1 kmh 30.91 in1046.7 mb 0.00 in0.0 mm 0.00 in0.0 mm 0.00 in0.0 mm
06:15 AM 72.6°F22.6°C 66.1°F18.9°C 80% Calm Calm 3.2 mph5.1 kmh 30.91 in1046.7 mb 0.00 in0.0 mm 0.00 in0.0 mm 0.00 in0.0 mm
06:14 AM 72.6°F22.6°C 66.1°F18.9°C 80% Calm Calm 3.2 mph5.1 kmh 30.91 in1046.7 mb 0.00 in0.0 mm 0.00 in0.0 mm 0.00 in0.0 mm
06:13 AM 72.6°F22.6°C 65.7°F18.7°C 79% 3.2 mph SW5.1 kmh SW 3.2 mph5.1 kmh 30.91 in1046.7 mb 0.00 in0.0 mm 0.00 in0.0 mm 0.00 in0.0 mm
06:11 AM 72.6°F22.6°C 65.7°F18.7°C 79% Calm Calm -- 30.91 in1046.7 mb 0.00 in0.0 mm 0.00 in0.0 mm 0.00 in0.0 mm
06:10 AM 72.6°F22.6°C 65.3°F18.5°C 78% Calm Calm -- 30.91 in1046.7 mb 0.00 in0.0 mm 0.00 in0.0 mm 0.00 in0.0 mm
06:08 AM 72.6°F22.6°C 65.3°F18.5°C 78% Calm Calm -- 30.91 in1046.7 mb 0.00 in0.0 mm 0.00 in0.0 mm 0.00 in0.0 mm
06:07 AM 72.6°F22.6°C 65.0°F18.3°C 77% Calm Calm -- 30.91 in1046.7 mb 0.00 in0.0 mm 0.00 in0.0 mm 0.00 in0.0 mm
06:06 AM 72.6°F22.6°C 64.6°F18.1°C 76% Calm Calm -- 30.91 in1046.7 mb 0.00 in0.0 mm 0.00 in0.0 mm 0.00 in0.0 mm
06:04 AM 72.6°F22.6°C 64.6°F18.1°C 76% Calm Calm -- 30.91 in1046.7 mb 0.00 in0.0 mm 0.00 in0.0 mm 0.00 in0.0 mm
06:03 AM 72.6°F22.6°C 64.6°F18.1°C 76% Calm Calm -- 30.91 in1046.7 mb 0.00 in0.0 mm 0.00 in0.0 mm 0.00 in0.0 mm
06:02 AM 72.6°F22.6°C 64.2°F17.9°C 75% Calm Calm -- 30.91 in1046.7 mb 0.00 in0.0 mm 0.00 in0.0 mm 0.00 in0.0 mm
06:01 AM 72.6°F22.6°C 64.2°F17.9°C 75% Calm Calm -- 30.91 in1046.7 mb 0.00 in0.0 mm 0.00 in0.0 mm 0.00 in0.0 mm
05:59 AM 72.6°F22.6°C 63.8°F17.7°C 74% Calm Calm 4.3 mph6.9 kmh 30.94 in1047.7 mb 0.00 in0.0 mm 0.00 in0.0 mm 0.00 in0.0 mm
05:57 AM 72.6°F22.6°C 63.8°F17.7°C 74% Calm Calm 4.3 mph6.9 kmh 30.94 in1047.7 mb 0.00 in0.0 mm 0.00 in0.0 mm 0.00 in0.0 mm
05:56 AM 72.6°F22.6°C 63.4°F17.4°C 73% Calm Calm 4.3 mph6.9 kmh 30.94 in1047.7 mb 0.00 in0.0 mm 0.00 in0.0 mm 0.00 in0.0 mm
05:54 AM 72.6°F22.6°C 63.1°F17.3°C 72% Calm Calm 4.8 mph7.7 kmh 30.94 in1047.7 mb 0.00 in0.0 mm 0.00 in0.0 mm 0.00 in0.0 mm
05:53 AM 72.6°F22.6°C 62.7°F17.1°C 71% Calm Calm 6.4 mph10.3 kmh 30.94 in1047.7 mb 0.00 in0.0 mm 0.00 in0.0 mm 0.00 in0.0 mm
05:52 AM 72.6°F22.6°C 62.7°F17.1°C 71% 4.3 mph SW6.9 kmh SW 7.5 mph12.1 kmh 30.94 in1047.7 mb 0.00 in0.0 mm 0.00 in0.0 mm 0.00 in0.0 mm
05:50 AM 72.6°F22.6°C 62.3°F16.8°C 70% 3.8 mph SW6.1 kmh SW 10.5 mph16.9 kmh 30.94 in1047.7 mb 0.00 in0.0 mm 0.00 in0.0 mm 0.00 in0.0 mm
05:49 AM 72.6°F22.6°C 61.8°F16.6°C 69% 4.3 mph SW6.9 kmh SW 10.5 mph16.9 kmh 30.94 in1047.7 mb 0.00 in0.0 mm 0.00 in0.0 mm 0.00 in0.0 mm
05:47 AM 72.8°F22.7°C 61.6°F16.4°C 68% 3.8 mph SSW6.1 kmh SSW 10.5 mph16.9 kmh 30.94 in1047.7 mb 0.00 in0.0 mm 0.00 in0.0 mm 0.00 in0.0 mm
05:46 AM 72.8°F22.7°C 61.6°F16.4°C 68% Calm Calm 10.5 mph16.9 kmh 30.94 in1047.7 mb 0.00 in0.0 mm 0.00 in0.0 mm 0.00 in0.0 mm
05:45 AM 72.8°F22.7°C 60.8°F16.0°C 66% 7.5 mph W12.1 kmh W 10.5 mph16.9 kmh 30.94 in1047.7 mb 0.00 in0.0 mm 0.00 in0.0 mm 0.00 in0.0 mm
05:43 AM 72.8°F22.7°C 60.8°F16.0°C 66% 3.8 mph SW6.1 kmh SW 7.5 mph12.1 kmh 30.91 in1046.7 mb 0.00 in0.0 mm 0.00 in0.0 mm 0.00 in0.0 mm
05:42 AM 72.9°F22.7°C 60.1°F15.6°C 64% 4.8 mph WSW7.7 kmh WSW 7.5 mph12.1 kmh 30.91 in1046.7 mb 0.00 in0.0 mm 0.00 in0.0 mm 0.00 in0.0 mm
05:40 AM 72.9°F22.7°C 59.6°F15.3°C 63% 3.8 mph WSW6.1 kmh WSW 7.5 mph12.1 kmh 30.91 in1046.7 mb 0.00 in0.0 mm 0.00 in0.0 mm 0.00 in0.0 mm
05:38 AM 72.9°F22.7°C 59.2°F15.1°C 62% 6.4 mph SW10.3 kmh SW 8.6 mph13.8 kmh 30.91 in1046.7 mb 0.00 in0.0 mm 0.00 in0.0 mm 0.00 in0.0 mm
05:37 AM 73.1°F22.8°C 58.9°F14.9°C 61% 5.9 mph WSW9.5 kmh WSW 8.6 mph13.8 kmh 30.91 in1046.7 mb 0.00 in0.0 mm 0.00 in0.0 mm 0.00 in0.0 mm
05:35 AM 73.3°F22.9°C 58.6°F14.8°C 60% 7.5 mph SW12.1 kmh SW 8.6 mph13.8 kmh 30.91 in1046.7 mb 0.00 in0.0 mm 0.00 in0.0 mm 0.00 in0.0 mm
05:34 AM 73.3°F22.9°C 58.6°F14.8°C 60% 3.8 mph S6.1 kmh S 8.6 mph13.8 kmh 30.91 in1046.7 mb 0.00 in0.0 mm 0.00 in0.0 mm 0.00 in0.0 mm
05:33 AM 73.3°F22.9°C 58.1°F14.5°C 59% 3.2 mph SSW5.1 kmh SSW 8.6 mph13.8 kmh 30.91 in1046.7 mb 0.00 in0.0 mm 0.00 in0.0 mm 0.00 in0.0 mm
05:32 AM 73.5°F23.1°C 57.8°F14.3°C 58% 5.4 mph SW8.7 kmh SW 7.5 mph12.1 kmh 30.91 in1046.7 mb 0.00 in0.0 mm 0.00 in0.0 mm 0.00 in0.0 mm
05:31 AM 73.5°F23.1°C 57.8°F14.3°C 58% 4.8 mph WSW7.7 kmh WSW 7.0 mph11.3 kmh 30.91 in1046.7 mb 0.00 in0.0 mm 0.00 in0.0 mm 0.00 in0.0 mm
05:29 AM 73.7°F23.2°C 57.5°F14.2°C 57% 5.9 mph SW9.5 kmh SW 6.4 mph10.3 kmh 30.91 in1046.7 mb 0.00 in0.0 mm 0.00 in0.0 mm 0.00 in0.0 mm
05:28 AM 73.7°F23.2°C 57.0°F13.9°C 56% 4.8 mph SW7.7 kmh SW 7.5 mph12.1 kmh 30.91 in1046.7 mb 0.00 in0.0 mm 0.00 in0.0 mm 0.00 in0.0 mm
05:26 AM 73.8°F23.2°C 56.2°F13.4°C 54% 3.8 mph SW6.1 kmh SW 7.5 mph12.1 kmh 30.91 in1046.7 mb 0.00 in0.0 mm 0.00 in0.0 mm 0.00 in0.0 mm
05:24 AM 74.0°F23.3°C 55.8°F13.2°C 53% 5.9 mph SW9.5 kmh SW 7.5 mph12.1 kmh 30.91 in1046.7 mb 0.00 in0.0 mm 0.00 in0.0 mm 0.00 in0.0 mm
05:22 AM 74.2°F23.4°C 54.9°F12.7°C 51% 4.8 mph SSW7.7 kmh SSW 7.5 mph12.1 kmh 30.91 in1046.7 mb 0.00 in0.0 mm 0.00 in0.0 mm 0.00 in0.0 mm
05:21 AM 74.4°F23.6°C 54.0°F12.2°C 49% 5.9 mph WSW9.5 kmh WSW 7.5 mph12.1 kmh 30.91 in1046.7 mb 0.00 in0.0 mm 0.00 in0.0 mm 0.00 in0.0 mm
05:19 AM 74.6°F23.7°C 53.6°F12.0°C 48% 6.4 mph SW10.3 kmh SW 7.0 mph11.3 kmh 30.91 in1046.7 mb 0.00 in0.0 mm 0.00 in0.0 mm 0.00 in0.0 mm
05:18 AM 74.7°F23.7°C 53.2°F11.8°C 47% 4.8 mph WSW7.7 kmh WSW 7.5 mph12.1 kmh 30.91 in1046.7 mb 0.00 in0.0 mm 0.00 in0.0 mm 0.00 in0.0 mm
05:17 AM 75.1°F23.9°C 52.9°F11.6°C 46% 3.8 mph W6.1 kmh W 10.5 mph16.9 kmh 30.91 in1046.7 mb 0.00 in0.0 mm 0.00 in0.0 mm 0.00 in0.0 mm
05:16 AM 75.3°F24.1°C 53.1°F11.7°C 46% 6.4 mph WSW10.3 kmh WSW 10.5 mph16.9 kmh 30.91 in1046.7 mb 0.00 in0.0 mm 0.00 in0.0 mm 0.00 in0.0 mm
05:14 AM 75.8°F24.3°C 53.0°F11.7°C 45% 3.2 mph SW5.1 kmh SW 10.5 mph16.9 kmh 30.91 in1046.7 mb 0.00 in0.0 mm 0.00 in0.0 mm 0.00 in0.0 mm
05:12 AM 76.0°F24.4°C 53.2°F11.8°C 45% 6.4 mph WSW10.3 kmh WSW 10.5 mph16.9 kmh 30.91 in1046.7 mb 0.00 in0.0 mm 0.00 in0.0 mm 0.00 in0.0 mm
05:11 AM 76.2°F24.6°C 52.7°F11.5°C 44% 4.3 mph WSW6.9 kmh WSW 10.5 mph16.9 kmh 30.91 in1046.7 mb 0.00 in0.0 mm 0.00 in0.0 mm 0.00 in0.0 mm
05:10 AM 76.5°F24.7°C 53.0°F11.7°C 44% 10.5 mph W16.9 kmh W 10.5 mph16.9 kmh 30.91 in1046.7 mb 0.00 in0.0 mm 0.00 in0.0 mm 0.00 in0.0 mm
05:08 AM 77.1°F25.1°C 52.9°F11.6°C 43% 7.5 mph WSW12.1 kmh WSW 12.6 mph20.3 kmh 30.91 in1046.7 mb 0.00 in0.0 mm 0.00 in0.0 mm 0.00 in0.0 mm
05:07 AM 77.3°F25.2°C 53.1°F11.7°C 43% 3.2 mph WNW5.1 kmh WNW 12.6 mph20.3 kmh 30.91 in1046.7 mb 0.00 in0.0 mm 0.00 in0.0 mm 0.00 in0.0 mm
05:05 AM 77.4°F25.2°C 53.2°F11.8°C 43% 5.9 mph WSW9.5 kmh WSW 12.6 mph20.3 kmh 30.91 in1046.7 mb 0.00 in0.0 mm 0.00 in0.0 mm 0.00 in0.0 mm
05:04 AM 77.6°F25.3°C 53.4°F11.9°C 43% 7.0 mph W11.3 kmh W 12.6 mph20.3 kmh 30.91 in1046.7 mb 0.00 in0.0 mm 0.00 in0.0 mm 0.00 in0.0 mm
05:03 AM 77.8°F25.4°C 53.5°F11.9°C 43% 7.0 mph WSW11.3 kmh WSW 12.6 mph20.3 kmh 30.91 in1046.7 mb 0.00 in0.0 mm 0.00 in0.0 mm 0.00 in0.0 mm
05:02 AM 77.8°F25.4°C 52.9°F11.6°C 42% 9.9 mph WSW15.9 kmh WSW 12.6 mph20.3 kmh 30.91 in1046.7 mb 0.00 in0.0 mm 0.00 in0.0 mm 0.00 in0.0 mm
05:00 AM 77.8°F25.4°C 52.9°F11.6°C 42% 7.0 mph W11.3 kmh W 9.7 mph15.6 kmh 30.91 in1046.7 mb 0.00 in0.0 mm 0.00 in0.0 mm 0.00 in0.0 mm
04:58 AM 77.8°F25.4°C 52.2°F11.2°C 41% 6.4 mph S10.3 kmh S 7.5 mph12.1 kmh 30.89 in1046.1 mb 0.00 in0.0 mm 0.00 in0.0 mm 0.00 in0.0 mm
04:57 AM 77.8°F25.4°C 52.2°F11.2°C 41% 7.5 mph SSW12.1 kmh SSW 7.5 mph12.1 kmh 30.89 in1046.1 mb 0.00 in0.0 mm 0.00 in0.0 mm 0.00 in0.0 mm
04:56 AM 77.8°F25.4°C 52.2°F11.2°C 41% 3.2 mph WSW5.1 kmh WSW 4.8 mph7.7 kmh 30.89 in1046.1 mb 0.00 in0.0 mm 0.00 in0.0 mm 0.00 in0.0 mm
04:55 AM 77.8°F25.4°C 51.6°F10.9°C 40% Calm Calm -- 30.89 in1046.1 mb 0.00 in0.0 mm 0.00 in0.0 mm 0.00 in0.0 mm
04:53 AM 77.8°F25.4°C 51.6°F10.9°C 40% Calm Calm -- 30.89 in1046.1 mb 0.00 in0.0 mm 0.00 in0.0 mm 0.00 in0.0 mm
04:51 AM 77.8°F25.4°C 51.6°F10.9°C 40% Calm Calm -- 30.89 in1046.1 mb 0.00 in0.0 mm 0.00 in0.0 mm 0.00 in0.0 mm
04:50 AM 77.8°F25.4°C 51.6°F10.9°C 40% Calm Calm -- 30.89 in1046.1 mb 0.00 in0.0 mm 0.00 in0.0 mm 0.00 in0.0 mm
04:49 AM 77.8°F25.4°C 51.6°F10.9°C 40% Calm Calm -- 30.89 in1046.1 mb 0.00 in0.0 mm 0.00 in0.0 mm 0.00 in0.0 mm
04:47 AM 77.8°F25.4°C 50.9°F10.5°C 39% Calm Calm -- 30.89 in1046.1 mb 0.00 in0.0 mm 0.00 in0.0 mm 0.00 in0.0 mm
04:46 AM 77.8°F25.4°C 50.9°F10.5°C 39% Calm Calm -- 30.89 in1046.1 mb 0.00 in0.0 mm 0.00 in0.0 mm 0.00 in0.0 mm
04:44 AM 77.8°F25.4°C 50.9°F10.5°C 39% Calm Calm -- 30.89 in1046.1 mb 0.00 in0.0 mm 0.00 in0.0 mm 0.00 in0.0 mm
04:43 AM 77.8°F25.4°C 50.9°F10.5°C 39% Calm Calm -- 30.89 in1046.1 mb 0.00 in0.0 mm 0.00 in0.0 mm 0.00 in0.0 mm
04:42 AM 77.8°F25.4°C 50.9°F10.5°C 39% Calm Calm -- 30.89 in1046.1 mb 0.00 in0.0 mm 0.00 in0.0 mm 0.00 in0.0 mm
04:41 AM 77.8°F25.4°C 50.9°F10.5°C 39% Calm Calm -- 30.89 in1046.1 mb 0.00 in0.0 mm 0.00 in0.0 mm 0.00 in0.0 mm
04:40 AM 78.0°F25.6°C 50.4°F10.2°C 38% Calm Calm -- 30.89 in1046.1 mb 0.00 in0.0 mm 0.00 in0.0 mm 0.00 in0.0 mm
04:39 AM 78.0°F25.6°C 50.4°F10.2°C 38% Calm Calm -- 30.89 in1046.1 mb 0.00 in0.0 mm 0.00 in0.0 mm 0.00 in0.0 mm
04:38 AM 78.0°F25.6°C 50.4°F10.2°C 38% Calm Calm -- 30.89 in1046.1 mb 0.00 in0.0 mm 0.00 in0.0 mm 0.00 in0.0 mm
04:36 AM 78.0°F25.6°C 50.4°F10.2°C 38% Calm Calm -- 30.89 in1046.1 mb 0.00 in0.0 mm 0.00 in0.0 mm 0.00 in0.0 mm
04:35 AM 78.0°F25.6°C 50.4°F10.2°C 38% Calm Calm -- 30.89 in1046.1 mb 0.00 in0.0 mm 0.00 in0.0 mm 0.00 in0.0 mm
04:34 AM 78.0°F25.6°C 50.4°F10.2°C 38% Calm Calm -- 30.89 in1046.1 mb 0.00 in0.0 mm 0.00 in0.0 mm 0.00 in0.0 mm
04:33 AM 78.0°F25.6°C 50.4°F10.2°C 38% Calm Calm -- 30.89 in1046.1 mb 0.00 in0.0 mm 0.00 in0.0 mm 0.00 in0.0 mm
04:32 AM 78.0°F25.6°C 50.4°F10.2°C 38% Calm Calm -- 30.89 in1046.1 mb 0.00 in0.0 mm 0.00 in0.0 mm 0.00 in0.0 mm
04:29 AM 78.2°F25.7°C 50.5°F10.3°C 38% Calm Calm -- 30.89 in1046.1 mb 0.00 in0.0 mm 0.00 in0.0 mm 0.00 in0.0 mm
04:28 AM 78.2°F25.7°C 50.5°F10.3°C 38% Calm Calm -- 30.89 in1046.1 mb 0.00 in0.0 mm 0.00 in0.0 mm 0.00 in0.0 mm
04:27 AM 78.2°F25.7°C 49.8°F9.9°C 37% Calm Calm -- 30.89 in1046.1 mb 0.00 in0.0 mm 0.00 in0.0 mm 0.00 in0.0 mm
04:26 AM 78.2°F25.7°C 49.8°F9.9°C 37% Calm Calm -- 30.89 in1046.1 mb 0.00 in0.0 mm 0.00 in0.0 mm 0.00 in0.0 mm
04:25 AM 78.2°F25.7°C 49.8°F9.9°C 37% Calm Calm -- 30.89 in1046.1 mb 0.00 in0.0 mm 0.00 in0.0 mm 0.00 in0.0 mm
04:24 AM 78.2°F25.7°C 49.8°F9.9°C 37% Calm Calm -- 30.89 in1046.1 mb 0.00 in0.0 mm 0.00 in0.0 mm 0.00 in0.0 mm
04:22 AM 78.2°F25.7°C 49.8°F9.9°C 37% Calm Calm -- 30.89 in1046.1 mb 0.00 in0.0 mm 0.00 in0.0 mm 0.00 in0.0 mm
04:21 AM 78.3°F25.7°C 50.0°F10.0°C 37% Calm Calm -- 30.89 in1046.1 mb 0.00 in0.0 mm 0.00 in0.0 mm 0.00 in0.0 mm
04:19 AM 78.3°F25.7°C 50.0°F10.0°C 37% Calm Calm -- 30.89 in1046.1 mb 0.00 in0.0 mm 0.00 in0.0 mm 0.00 in0.0 mm
04:18 AM 78.3°F25.7°C 50.0°F10.0°C 37% Calm Calm -- 30.89 in1046.1 mb 0.00 in0.0 mm 0.00 in0.0 mm 0.00 in0.0 mm
04:17 AM 78.3°F25.7°C 50.0°F10.0°C 37% Calm Calm -- 30.89 in1046.1 mb 0.00 in0.0 mm 0.00 in0.0 mm 0.00 in0.0 mm
04:15 AM 78.3°F25.7°C 50.0°F10.0°C 37% Calm Calm -- 30.89 in1046.1 mb 0.00 in0.0 mm 0.00 in0.0 mm 0.00 in0.0 mm
04:14 AM 78.3°F25.7°C 49.2°F9.6°C 36% Calm Calm -- 30.89 in1046.1 mb 0.00 in0.0 mm 0.00 in0.0 mm 0.00 in0.0 mm
04:13 AM 78.3°F25.7°C 49.2°F9.6°C 36% Calm Calm -- 30.89 in1046.1 mb 0.00 in0.0 mm 0.00 in0.0 mm 0.00 in0.0 mm
04:11 AM 78.3°F25.7°C 49.2°F9.6°C 36% Calm Calm -- 30.89 in1046.1 mb 0.00 in0.0 mm 0.00 in0.0 mm 0.00 in0.0 mm
04:09 AM 78.2°F25.7°C 49.1°F9.5°C 36% Calm Calm -- 30.89 in1046.1 mb 0.00 in0.0 mm 0.00 in0.0 mm 0.00 in0.0 mm
04:07 AM 78.3°F25.7°C 49.2°F9.6°C 36% Calm Calm -- 30.89 in1046.1 mb 0.00 in0.0 mm 0.00 in0.0 mm 0.00 in0.0 mm
04:05 AM 78.2°F25.7°C 49.1°F9.5°C 36% Calm Calm -- 30.89 in1046.1 mb 0.00 in0.0 mm 0.00 in0.0 mm 0.00 in0.0 mm
04:04 AM 78.2°F25.7°C 49.1°F9.5°C 36% Calm Calm -- 30.89 in1046.1 mb 0.00 in0.0 mm 0.00 in0.0 mm 0.00 in0.0 mm
04:03 AM 78.2°F25.7°C 49.1°F9.5°C 36% Calm Calm -- 30.89 in1046.1 mb 0.00 in0.0 mm 0.00 in0.0 mm 0.00 in0.0 mm
04:02 AM 78.2°F25.7°C 49.1°F9.5°C 36% Calm Calm -- 30.89 in1046.1 mb 0.00 in0.0 mm 0.00 in0.0 mm 0.00 in0.0 mm
04:00 AM 78.2°F25.7°C 49.1°F9.5°C 36% Calm Calm -- 30.89 in1046.1 mb 0.00 in0.0 mm 0.00 in0.0 mm 0.00 in0.0 mm
03:59 AM 78.2°F25.7°C 49.1°F9.5°C 36% Calm Calm -- 30.89 in1046.1 mb 0.00 in0.0 mm 0.00 in0.0 mm 0.00 in0.0 mm
03:58 AM 78.2°F25.7°C 49.1°F9.5°C 36% Calm Calm -- 30.89 in1046.1 mb 0.00 in0.0 mm 0.00 in0.0 mm 0.00 in0.0 mm
03:57 AM 78.2°F25.7°C 49.1°F9.5°C 36% Calm Calm -- 30.89 in1046.1 mb 0.00 in0.0 mm 0.00 in0.0 mm 0.00 in0.0 mm
03:54 AM 78.2°F25.7°C 49.1°F9.5°C 36% Calm Calm -- 30.89 in1046.1 mb 0.00 in0.0 mm 0.00 in0.0 mm 0.00 in0.0 mm
03:53 AM 78.2°F25.7°C 49.1°F9.5°C 36% Calm Calm -- 30.89 in1046.1 mb 0.00 in0.0 mm 0.00 in0.0 mm 0.00 in0.0 mm
03:52 AM 78.0°F25.6°C 48.9°F9.4°C 36% Calm Calm -- 30.89 in1046.1 mb 0.00 in0.0 mm 0.00 in0.0 mm 0.00 in0.0 mm
03:51 AM 78.0°F25.6°C 48.9°F9.4°C 36% Calm Calm -- 30.89 in1046.1 mb 0.00 in0.0 mm 0.00 in0.0 mm 0.00 in0.0 mm
03:50 AM 78.0°F25.6°C 48.9°F9.4°C 36% Calm Calm -- 30.89 in1046.1 mb 0.00 in0.0 mm 0.00 in0.0 mm 0.00 in0.0 mm
03:49 AM 78.0°F25.6°C 48.9°F9.4°C 36% Calm Calm -- 30.89 in1046.1 mb 0.00 in0.0 mm 0.00 in0.0 mm 0.00 in0.0 mm
03:48 AM 78.0°F25.6°C 48.9°F9.4°C 36% Calm Calm -- 30.89 in1046.1 mb 0.00 in0.0 mm 0.00 in0.0 mm 0.00 in0.0 mm
03:45 AM 78.0°F25.6°C 48.9°F9.4°C 36% Calm Calm -- 30.89 in1046.1 mb 0.00 in0.0 mm 0.00 in0.0 mm 0.00 in0.0 mm
03:44 AM 78.0°F25.6°C 48.9°F9.4°C 36% Calm Calm -- 30.89 in1046.1 mb 0.00 in0.0 mm 0.00 in0.0 mm 0.00 in0.0 mm
03:43 AM 78.2°F25.7°C 49.1°F9.5°C 36% Calm Calm -- 30.89 in1046.1 mb 0.00 in0.0 mm 0.00 in0.0 mm 0.00 in0.0 mm
03:42 AM 78.2°F25.7°C 49.1°F9.5°C 36% Calm Calm -- 30.89 in1046.1 mb 0.00 in0.0 mm 0.00 in0.0 mm 0.00 in0.0 mm
03:41 AM 78.2°F25.7°C 49.1°F9.5°C 36% Calm Calm -- 30.89 in1046.1 mb 0.00 in0.0 mm 0.00 in0.0 mm 0.00 in0.0 mm
03:39 AM 78.2°F25.7°C 49.1°F9.5°C 36% Calm Calm -- 30.89 in1046.1 mb 0.00 in0.0 mm 0.00 in0.0 mm 0.00 in0.0 mm
03:36 AM 78.2°F25.7°C 49.1°F9.5°C 36% Calm Calm -- 30.89 in1046.1 mb 0.00 in0.0 mm 0.00 in0.0 mm 0.00 in0.0 mm
03:34 AM 78.2°F25.7°C 49.1°F9.5°C 36% Calm Calm -- 30.89 in1046.1 mb 0.00 in0.0 mm 0.00 in0.0 mm 0.00 in0.0 mm
03:33 AM 78.3°F25.7°C 48.5°F9.2°C 35% Calm Calm -- 30.89 in1046.1 mb 0.00 in0.0 mm 0.00 in0.0 mm 0.00 in0.0 mm
03:32 AM 78.3°F25.7°C 48.5°F9.2°C 35% Calm Calm -- 30.89 in1046.1 mb 0.00 in0.0 mm 0.00 in0.0 mm 0.00 in0.0 mm
03:31 AM 78.3°F25.7°C 48.5°F9.2°C 35% Calm Calm -- 30.89 in1046.1 mb 0.00 in0.0 mm 0.00 in0.0 mm 0.00 in0.0 mm
03:30 AM 78.3°F25.7°C 48.5°F9.2°C 35% Calm Calm -- 30.89 in1046.1 mb 0.00 in0.0 mm 0.00 in0.0 mm 0.00 in0.0 mm
03:29 AM 78.3°F25.7°C 48.5°F9.2°C 35% Calm Calm -- 30.89 in1046.1 mb 0.00 in0.0 mm 0.00 in0.0 mm 0.00 in0.0 mm
03:28 AM 78.3°F25.7°C 48.5°F9.2°C 35% Calm Calm -- 30.89 in1046.1 mb 0.00 in0.0 mm 0.00 in0.0 mm 0.00 in0.0 mm
03:27 AM 78.3°F25.7°C 48.5°F9.2°C 35% Calm Calm -- 30.89 in1046.1 mb 0.00 in0.0 mm 0.00 in0.0 mm 0.00 in0.0 mm
03:25 AM 78.3°F25.7°C 48.5°F9.2°C 35% Calm Calm -- 30.89 in1046.1 mb 0.00 in0.0 mm 0.00 in0.0 mm 0.00 in0.0 mm
03:23 AM 78.3°F25.7°C 48.5°F9.2°C 35% Calm Calm -- 30.89 in1046.1 mb 0.00 in0.0 mm 0.00 in0.0 mm 0.00 in0.0 mm
03:22 AM 78.5°F25.8°C 48.6°F9.2°C 35% Calm Calm -- 30.89 in1046.1 mb 0.00 in0.0 mm 0.00 in0.0 mm 0.00 in0.0 mm
03:20 AM 78.5°F25.8°C 48.6°F9.2°C 35% Calm Calm -- 30.89 in1046.1 mb 0.00 in0.0 mm 0.00 in0.0 mm 0.00 in0.0 mm
03:18 AM 78.5°F25.8°C 48.6°F9.2°C 35% Calm Calm -- 30.89 in1046.1 mb 0.00 in0.0 mm 0.00 in0.0 mm 0.00 in0.0 mm
03:17 AM 78.5°F25.8°C 48.6°F9.2°C 35% Calm Calm -- 30.89 in1046.1 mb 0.00 in0.0 mm 0.00 in0.0 mm 0.00 in0.0 mm
03:15 AM 78.5°F25.8°C 48.6°F9.2°C 35% Calm Calm -- 30.89 in1046.1 mb 0.00 in0.0 mm 0.00 in0.0 mm 0.00 in0.0 mm
03:13 AM 78.5°F25.8°C 48.6°F9.2°C 35% Calm Calm -- 30.89 in1046.1 mb 0.00 in0.0 mm 0.00 in0.0 mm 0.00 in0.0 mm
03:12 AM 78.5°F25.8°C 48.6°F9.2°C 35% Calm Calm -- 30.89 in1046.1 mb 0.00 in0.0 mm 0.00 in0.0 mm 0.00 in0.0 mm
03:11 AM 78.5°F25.8°C 48.6°F9.2°C 35% Calm Calm -- 30.89 in1046.1 mb 0.00 in0.0 mm 0.00 in0.0 mm 0.00 in0.0 mm
03:09 AM 78.5°F25.8°C 48.6°F9.2°C 35% Calm Calm -- 30.89 in1046.1 mb 0.00 in0.0 mm 0.00 in0.0 mm 0.00 in0.0 mm
03:08 AM 78.5°F25.8°C 48.6°F9.2°C 35% Calm Calm -- 30.89 in1046.1 mb 0.00 in0.0 mm 0.00 in0.0 mm 0.00 in0.0 mm
03:06 AM 78.5°F25.8°C 48.6°F9.2°C 35% Calm Calm -- 30.89 in1046.1 mb 0.00 in0.0 mm 0.00 in0.0 mm 0.00 in0.0 mm
03:05 AM 78.5°F25.8°C 48.6°F9.2°C 35% Calm Calm -- 30.89 in1046.1 mb 0.00 in0.0 mm 0.00 in0.0 mm 0.00 in0.0 mm
03:04 AM 78.5°F25.8°C 48.6°F9.2°C 35% Calm Calm -- 30.89 in1046.1 mb 0.00 in0.0 mm 0.00 in0.0 mm 0.00 in0.0 mm
03:02 AM 78.5°F25.8°C 48.6°F9.2°C 35% Calm Calm -- 30.89 in1046.1 mb 0.00 in0.0 mm 0.00 in0.0 mm 0.00 in0.0 mm
03:01 AM 78.5°F25.8°C 48.6°F9.2°C 35% Calm Calm -- 30.89 in1046.1 mb 0.00 in0.0 mm 0.00 in0.0 mm 0.00 in0.0 mm
02:59 AM 78.7°F25.9°C 48.8°F9.3°C 35% Calm Calm -- 30.89 in1046.1 mb 0.00 in0.0 mm 0.00 in0.0 mm 0.00 in0.0 mm
02:58 AM 78.7°F25.9°C 48.8°F9.3°C 35% Calm Calm -- 30.89 in1046.1 mb 0.00 in0.0 mm 0.00 in0.0 mm 0.00 in0.0 mm
02:57 AM 78.7°F25.9°C 48.8°F9.3°C 35% Calm Calm -- 30.89 in1046.1 mb 0.00 in0.0 mm 0.00 in0.0 mm 0.00 in0.0 mm
02:56 AM 78.7°F25.9°C 48.8°F9.3°C 35% Calm Calm -- 30.89 in1046.1 mb 0.00 in0.0 mm 0.00 in0.0 mm 0.00 in0.0 mm
02:54 AM 78.7°F25.9°C 48.8°F9.3°C 35% Calm Calm -- 30.89 in1046.1 mb 0.00 in0.0 mm 0.00 in0.0 mm 0.00 in0.0 mm
02:53 AM 78.7°F25.9°C 48.8°F9.3°C 35% Calm Calm -- 30.89 in1046.1 mb 0.00 in0.0 mm 0.00 in0.0 mm 0.00 in0.0 mm
02:51 AM 78.7°F25.9°C 48.8°F9.3°C 35% Calm Calm -- 30.89 in1046.1 mb 0.00 in0.0 mm 0.00 in0.0 mm 0.00 in0.0 mm
02:50 AM 78.7°F25.9°C 48.8°F9.3°C 35% Calm Calm 2.7 mph4.3 kmh 30.89 in1046.1 mb 0.00 in0.0 mm 0.00 in0.0 mm 0.00 in0.0 mm
02:49 AM 78.7°F25.9°C 48.8°F9.3°C 35% Calm Calm 2.7 mph4.3 kmh 30.89 in1046.1 mb 0.00 in0.0 mm 0.00 in0.0 mm 0.00 in0.0 mm
02:48 AM 78.7°F25.9°C 48.8°F9.3°C 35% Calm Calm 2.7 mph4.3 kmh 30.89 in1046.1 mb 0.00 in0.0 mm 0.00 in0.0 mm 0.00 in0.0 mm
02:47 AM 78.7°F25.9°C 48.8°F9.3°C 35% Calm Calm 3.2 mph5.1 kmh 30.89 in1046.1 mb 0.00 in0.0 mm 0.00 in0.0 mm 0.00 in0.0 mm
02:45 AM 78.7°F25.9°C 48.8°F9.3°C 35% Calm Calm 3.8 mph6.1 kmh 30.89 in1046.1 mb 0.00 in0.0 mm 0.00 in0.0 mm 0.00 in0.0 mm
02:44 AM 78.7°F25.9°C 48.8°F9.3°C 35% Calm Calm 4.8 mph7.7 kmh 30.89 in1046.1 mb 0.00 in0.0 mm 0.00 in0.0 mm 0.00 in0.0 mm
02:43 AM 78.7°F25.9°C 48.8°F9.3°C 35% 2.7 mph SW4.3 kmh SW 4.8 mph7.7 kmh 30.89 in1046.1 mb 0.00 in0.0 mm 0.00 in0.0 mm 0.00 in0.0 mm
02:42 AM 78.7°F25.9°C 48.8°F9.3°C 35% Calm Calm 4.8 mph7.7 kmh 30.89 in1046.1 mb 0.00 in0.0 mm 0.00 in0.0 mm 0.00 in0.0 mm
02:40 AM 78.7°F25.9°C 48.8°F9.3°C 35% 3.2 mph SW5.1 kmh SW 4.8 mph7.7 kmh 30.89 in1046.1 mb 0.00 in0.0 mm 0.00 in0.0 mm 0.00 in0.0 mm
02:38 AM 78.7°F25.9°C 48.8°F9.3°C 35% Calm Calm 4.8 mph7.7 kmh 30.89 in1046.1 mb 0.00 in0.0 mm 0.00 in0.0 mm 0.00 in0.0 mm
02:37 AM 78.7°F25.9°C 48.8°F9.3°C 35% Calm Calm -- 30.89 in1046.1 mb 0.00 in0.0 mm 0.00 in0.0 mm 0.00 in0.0 mm
02:36 AM 78.7°F25.9°C 48.8°F9.3°C 35% Calm Calm -- 30.89 in1046.1 mb 0.00 in0.0 mm 0.00 in0.0 mm 0.00 in0.0 mm
02:35 AM 78.7°F25.9°C 48.8°F9.3°C 35% Calm Calm -- 30.89 in1046.1 mb 0.00 in0.0 mm 0.00 in0.0 mm 0.00 in0.0 mm
02:33 AM 78.7°F25.9°C 48.8°F9.3°C 35% Calm Calm -- 30.89 in1046.1 mb 0.00 in0.0 mm 0.00 in0.0 mm 0.00 in0.0 mm
02:32 AM 78.7°F25.9°C 48.8°F9.3°C 35% Calm Calm -- 30.89 in1046.1 mb 0.00 in0.0 mm 0.00 in0.0 mm 0.00 in0.0 mm
02:30 AM 78.7°F25.9°C 48.8°F9.3°C 35% Calm Calm -- 30.89 in1046.1 mb 0.00 in0.0 mm 0.00 in0.0 mm 0.00 in0.0 mm
02:29 AM 78.7°F25.9°C 48.8°F9.3°C 35% Calm Calm -- 30.89 in1046.1 mb 0.00 in0.0 mm 0.00 in0.0 mm 0.00 in0.0 mm
02:27 AM 78.7°F25.9°C 48.8°F9.3°C 35% Calm Calm -- 30.89 in1046.1 mb 0.00 in0.0 mm 0.00 in0.0 mm 0.00 in0.0 mm
02:26 AM 78.7°F25.9°C 48.8°F9.3°C 35% Calm Calm -- 30.89 in1046.1 mb 0.00 in0.0 mm 0.00 in0.0 mm 0.00 in0.0 mm
02:24 AM 78.7°F25.9°C 48.8°F9.3°C 35% Calm Calm -- 30.89 in1046.1 mb 0.00 in0.0 mm 0.00 in0.0 mm 0.00 in0.0 mm
02:23 AM 78.7°F25.9°C 48.8°F9.3°C 35% Calm Calm -- 30.89 in1046.1 mb 0.00 in0.0 mm 0.00 in0.0 mm 0.00 in0.0 mm
02:22 AM 78.7°F25.9°C 48.8°F9.3°C 35% Calm Calm -- 30.89 in1046.1 mb 0.00 in0.0 mm 0.00 in0.0 mm 0.00 in0.0 mm
02:20 AM 78.7°F25.9°C 48.8°F9.3°C 35% Calm Calm -- 30.89 in1046.1 mb 0.00 in0.0 mm 0.00 in0.0 mm 0.00 in0.0 mm
02:19 AM 78.7°F25.9°C 48.8°F9.3°C 35% Calm Calm -- 30.89 in1046.1 mb 0.00 in0.0 mm 0.00 in0.0 mm 0.00 in0.0 mm
02:17 AM 78.7°F25.9°C 48.8°F9.3°C 35% Calm Calm -- 30.89 in1046.1 mb 0.00 in0.0 mm 0.00 in0.0 mm 0.00 in0.0 mm
02:16 AM 78.7°F25.9°C 48.8°F9.3°C 35% Calm Calm -- 30.89 in1046.1 mb 0.00 in0.0 mm 0.00 in0.0 mm 0.00 in0.0 mm
02:15 AM 78.7°F25.9°C 48.8°F9.3°C 35% Calm Calm -- 30.89 in1046.1 mb 0.00 in0.0 mm 0.00 in0.0 mm 0.00 in0.0 mm
02:13 AM 78.7°F25.9°C 48.8°F9.3°C 35% Calm Calm -- 30.89 in1046.1 mb 0.00 in0.0 mm 0.00 in0.0 mm 0.00 in0.0 mm
02:12 AM 78.7°F25.9°C 48.8°F9.3°C 35% Calm Calm -- 30.89 in1046.1 mb 0.00 in0.0 mm 0.00 in0.0 mm 0.00 in0.0 mm
02:11 AM 78.7°F25.9°C 48.8°F9.3°C 35% Calm Calm -- 30.89 in1046.1 mb 0.00 in0.0 mm 0.00 in0.0 mm 0.00 in0.0 mm
02:09 AM 78.7°F25.9°C 48.8°F9.3°C 35% Calm Calm -- 30.89 in1046.1 mb 0.00 in0.0 mm 0.00 in0.0 mm 0.00 in0.0 mm
02:08 AM 78.7°F25.9°C 48.8°F9.3°C 35% Calm Calm -- 30.89 in1046.1 mb 0.00 in0.0 mm 0.00 in0.0 mm 0.00 in0.0 mm
02:06 AM 78.7°F25.9°C 48.8°F9.3°C 35% Calm Calm -- 30.89 in1046.1 mb 0.00 in0.0 mm 0.00 in0.0 mm 0.00 in0.0 mm
02:05 AM 78.7°F25.9°C 48.8°F9.3°C 35% Calm Calm 4.3 mph6.9 kmh 30.89 in1046.1 mb 0.00 in0.0 mm 0.00 in0.0 mm 0.00 in0.0 mm
02:04 AM 78.7°F25.9°C 48.8°F9.3°C 35% Calm Calm 4.3 mph6.9 kmh 30.89 in1046.1 mb 0.00 in0.0 mm 0.00 in0.0 mm 0.00 in0.0 mm
02:03 AM 78.7°F25.9°C 48.8°F9.3°C 35% Calm Calm 4.3 mph6.9 kmh 30.89 in1046.1 mb 0.00 in0.0 mm 0.00 in0.0 mm 0.00 in0.0 mm
02:01 AM 78.7°F25.9°C 48.8°F9.3°C 35% Calm Calm 4.3 mph6.9 kmh 30.89 in1046.1 mb 0.00 in0.0 mm 0.00 in0.0 mm 0.00 in0.0 mm
01:59 AM 78.7°F25.9°C 48.8°F9.3°C 35% Calm Calm 4.3 mph6.9 kmh 30.89 in1046.1 mb 0.00 in0.0 mm 0.00 in0.0 mm 0.00 in0.0 mm
01:58 AM 78.7°F25.9°C 48.8°F9.3°C 35% Calm Calm -- 30.89 in1046.1 mb 0.00 in0.0 mm 0.00 in0.0 mm 0.00 in0.0 mm
01:56 AM 78.5°F25.8°C 48.6°F9.2°C 35% Calm Calm -- 30.89 in1046.1 mb 0.00 in0.0 mm 0.00 in0.0 mm 0.00 in0.0 mm
01:55 AM 78.5°F25.8°C 48.6°F9.2°C 35% Calm Calm -- 30.89 in1046.1 mb 0.00 in0.0 mm 0.00 in0.0 mm 0.00 in0.0 mm
01:54 AM 78.5°F25.8°C 48.6°F9.2°C 35% Calm Calm -- 30.89 in1046.1 mb 0.00 in0.0 mm 0.00 in0.0 mm 0.00 in0.0 mm
01:52 AM 78.5°F25.8°C 48.6°F9.2°C 35% Calm Calm -- 30.89 in1046.1 mb 0.00 in0.0 mm 0.00 in0.0 mm 0.00 in0.0 mm
01:51 AM 78.5°F25.8°C 48.6°F9.2°C 35% Calm Calm -- 30.89 in1046.1 mb 0.00 in0.0 mm 0.00 in0.0 mm 0.00 in0.0 mm
01:49 AM 78.3°F25.7°C 48.5°F9.2°C 35% Calm Calm -- 30.89 in1046.1 mb 0.00 in0.0 mm 0.00 in0.0 mm 0.00 in0.0 mm
01:48 AM 78.3°F25.7°C 48.5°F9.2°C 35% Calm Calm -- 30.89 in1046.1 mb 0.00 in0.0 mm 0.00 in0.0 mm 0.00 in0.0 mm
01:47 AM 78.3°F25.7°C 48.5°F9.2°C 35% Calm Calm -- 30.89 in1046.1 mb 0.00 in0.0 mm 0.00 in0.0 mm 0.00 in0.0 mm
01:45 AM 78.3°F25.7°C 48.5°F9.2°C 35% Calm Calm -- 30.89 in1046.1 mb 0.00 in0.0 mm 0.00 in0.0 mm 0.00 in0.0 mm
01:44 AM 78.3°F25.7°C 48.5°F9.2°C 35% Calm Calm -- 30.91 in1046.7 mb 0.00 in0.0 mm 0.00 in0.0 mm 0.00 in0.0 mm
01:43 AM 78.3°F25.7°C 48.5°F9.2°C 35% Calm Calm -- 30.91 in1046.7 mb 0.00 in0.0 mm 0.00 in0.0 mm 0.00 in0.0 mm
01:42 AM 78.3°F25.7°C 48.5°F9.2°C 35% Calm Calm -- 30.91 in1046.7 mb 0.00 in0.0 mm 0.00 in0.0 mm 0.00 in0.0 mm
01:40 AM 78.3°F25.7°C 48.5°F9.2°C 35% Calm Calm -- 30.91 in1046.7 mb 0.00 in0.0 mm 0.00 in0.0 mm 0.00 in0.0 mm
01:38 AM 78.3°F25.7°C 48.5°F9.2°C 35% Calm Calm -- 30.91 in1046.7 mb 0.00 in0.0 mm 0.00 in0.0 mm 0.00 in0.0 mm
01:37 AM 78.3°F25.7°C 48.5°F9.2°C 35% Calm Calm -- 30.91 in1046.7 mb 0.00 in0.0 mm 0.00 in0.0 mm 0.00 in0.0 mm
01:35 AM 78.3°F25.7°C 48.5°F9.2°C 35% Calm Calm -- 30.91 in1046.7 mb 0.00 in0.0 mm 0.00 in0.0 mm 0.00 in0.0 mm
01:34 AM 78.3°F25.7°C 48.5°F9.2°C 35% Calm Calm -- 30.91 in1046.7 mb 0.00 in0.0 mm 0.00 in0.0 mm 0.00 in0.0 mm
01:33 AM 78.3°F25.7°C 48.5°F9.2°C 35% Calm Calm -- 30.91 in1046.7 mb 0.00 in0.0 mm 0.00 in0.0 mm 0.00 in0.0 mm
01:32 AM 78.3°F25.7°C 48.5°F9.2°C 35% Calm Calm -- 30.91 in1046.7 mb 0.00 in0.0 mm 0.00 in0.0 mm 0.00 in0.0 mm
01:30 AM 78.3°F25.7°C 48.5°F9.2°C 35% Calm Calm -- 30.91 in1046.7 mb 0.00 in0.0 mm 0.00 in0.0 mm 0.00 in0.0 mm
01:28 AM 78.3°F25.7°C 48.5°F9.2°C 35% Calm Calm -- 30.91 in1046.7 mb 0.00 in0.0 mm 0.00 in0.0 mm 0.00 in0.0 mm
01:27 AM 78.3°F25.7°C 48.5°F9.2°C 35% Calm Calm -- 30.91 in1046.7 mb 0.00 in0.0 mm 0.00 in0.0 mm 0.00 in0.0 mm
01:26 AM 78.3°F25.7°C 48.5°F9.2°C 35% Calm Calm -- 30.91 in1046.7 mb 0.00 in0.0 mm 0.00 in0.0 mm 0.00 in0.0 mm
01:24 AM 78.3°F25.7°C 48.5°F9.2°C 35% Calm Calm -- 30.91 in1046.7 mb 0.00 in0.0 mm 0.00 in0.0 mm 0.00 in0.0 mm
01:23 AM 78.3°F25.7°C 48.5°F9.2°C 35% Calm Calm -- 30.91 in1046.7 mb 0.00 in0.0 mm 0.00 in0.0 mm 0.00 in0.0 mm
01:21 AM 78.2°F25.7°C 48.3°F9.1°C 35% Calm Calm -- 30.91 in1046.7 mb 0.00 in0.0 mm 0.00 in0.0 mm 0.00 in0.0 mm
01:20 AM 78.2°F25.7°C 48.3°F9.1°C 35% Calm Calm -- 30.91 in1046.7 mb 0.00 in0.0 mm 0.00 in0.0 mm 0.00 in0.0 mm
01:19 AM 78.2°F25.7°C 48.3°F9.1°C 35% Calm Calm -- 30.91 in1046.7 mb 0.00 in0.0 mm 0.00 in0.0 mm 0.00 in0.0 mm
01:18 AM 78.2°F25.7°C 48.3°F9.1°C 35% Calm Calm -- 30.91 in1046.7 mb 0.00 in0.0 mm 0.00 in0.0 mm 0.00 in0.0 mm
01:16 AM 78.2°F25.7°C 48.3°F9.1°C 35% Calm Calm -- 30.91 in1046.7 mb 0.00 in0.0 mm 0.00 in0.0 mm 0.00 in0.0 mm
01:14 AM 78.2°F25.7°C 48.3°F9.1°C 35% Calm Calm -- 30.91 in1046.7 mb 0.00 in0.0 mm 0.00 in0.0 mm 0.00 in0.0 mm
01:12 AM 78.2°F25.7°C 48.3°F9.1°C 35% Calm Calm -- 30.91 in1046.7 mb 0.00 in0.0 mm 0.00 in0.0 mm 0.00 in0.0 mm
01:10 AM 78.2°F25.7°C 48.3°F9.1°C 35% Calm Calm -- 30.91 in1046.7 mb 0.00 in0.0 mm 0.00 in0.0 mm 0.00 in0.0 mm
01:09 AM 78.2°F25.7°C 48.3°F9.1°C 35% Calm Calm -- 30.91 in1046.7 mb 0.00 in0.0 mm 0.00 in0.0 mm 0.00 in0.0 mm
01:07 AM 78.2°F25.7°C 48.3°F9.1°C 35% Calm Calm -- 30.91 in1046.7 mb 0.00 in0.0 mm 0.00 in0.0 mm 0.00 in0.0 mm
01:05 AM 78.3°F25.7°C 48.5°F9.2°C 35% Calm Calm -- 30.91 in1046.7 mb 0.00 in0.0 mm 0.00 in0.0 mm 0.00 in0.0 mm
01:03 AM 78.3°F25.7°C 48.5°F9.2°C 35% Calm Calm -- 30.91 in1046.7 mb 0.00 in0.0 mm 0.00 in0.0 mm 0.00 in0.0 mm
01:02 AM 78.3°F25.7°C 48.5°F9.2°C 35% Calm Calm -- 30.91 in1046.7 mb 0.00 in0.0 mm 0.00 in0.0 mm 0.00 in0.0 mm
01:00 AM 78.3°F25.7°C 48.5°F9.2°C 35% Calm Calm -- 30.91 in1046.7 mb 0.00 in0.0 mm 0.00 in0.0 mm 0.00 in0.0 mm
12:58 AM 78.3°F25.7°C 48.5°F9.2°C 35% Calm Calm -- 30.91 in1046.7 mb 0.00 in0.0 mm 0.00 in0.0 mm 0.00 in0.0 mm
12:57 AM 78.3°F25.7°C 48.5°F9.2°C 35% Calm Calm -- 30.91 in1046.7 mb 0.00 in0.0 mm 0.00 in0.0 mm 0.00 in0.0 mm
12:55 AM 78.3°F25.7°C 48.5°F9.2°C 35% Calm Calm -- 30.91 in1046.7 mb 0.00 in0.0 mm 0.00 in0.0 mm 0.00 in0.0 mm
12:53 AM 78.3°F25.7°C 48.5°F9.2°C 35% Calm Calm -- 30.91 in1046.7 mb 0.00 in0.0 mm 0.00 in0.0 mm 0.00 in0.0 mm
12:52 AM 78.3°F25.7°C 48.5°F9.2°C 35% Calm Calm -- 30.91 in1046.7 mb 0.00 in0.0 mm 0.00 in0.0 mm 0.00 in0.0 mm
12:51 AM 78.3°F25.7°C 48.5°F9.2°C 35% Calm Calm -- 30.91 in1046.7 mb 0.00 in0.0 mm 0.00 in0.0 mm 0.00 in0.0 mm
12:49 AM 78.5°F25.8°C 48.6°F9.2°C 35% Calm Calm 4.8 mph7.7 kmh 30.91 in1046.7 mb 0.00 in0.0 mm 0.00 in0.0 mm 0.00 in0.0 mm
12:48 AM 78.5°F25.8°C 48.6°F9.2°C 35% Calm Calm 4.8 mph7.7 kmh 30.91 in1046.7 mb 0.00 in0.0 mm 0.00 in0.0 mm 0.00 in0.0 mm
12:46 AM 78.5°F25.8°C 48.6°F9.2°C 35% Calm Calm 4.8 mph7.7 kmh 30.91 in1046.7 mb 0.00 in0.0 mm 0.00 in0.0 mm 0.00 in0.0 mm
12:45 AM 78.5°F25.8°C 48.6°F9.2°C 35% Calm Calm 4.8 mph7.7 kmh 30.91 in1046.7 mb 0.00 in0.0 mm 0.00 in0.0 mm 0.00 in0.0 mm
12:44 AM 78.3°F25.7°C 48.5°F9.2°C 35% Calm Calm 4.8 mph7.7 kmh 30.91 in1046.7 mb 0.00 in0.0 mm 0.00 in0.0 mm 0.00 in0.0 mm
12:42 AM 78.3°F25.7°C 48.5°F9.2°C 35% 3.2 mph WSW5.1 kmh WSW 4.8 mph7.7 kmh 30.91 in1046.7 mb 0.00 in0.0 mm 0.00 in0.0 mm 0.00 in0.0 mm
12:41 AM 78.3°F25.7°C 48.5°F9.2°C 35% 3.8 mph SW6.1 kmh SW 3.8 mph6.1 kmh 30.91 in1046.7 mb 0.00 in0.0 mm 0.00 in0.0 mm 0.00 in0.0 mm
12:39 AM 78.3°F25.7°C 48.5°F9.2°C 35% Calm Calm -- 30.91 in1046.7 mb 0.00 in0.0 mm 0.00 in0.0 mm 0.00 in0.0 mm
12:38 AM 78.3°F25.7°C 48.5°F9.2°C 35% Calm Calm -- 30.91 in1046.7 mb 0.00 in0.0 mm 0.00 in0.0 mm 0.00 in0.0 mm
12:37 AM 78.2°F25.7°C 48.3°F9.1°C 35% Calm Calm -- 30.91 in1046.7 mb 0.00 in0.0 mm 0.00 in0.0 mm 0.00 in0.0 mm
12:36 AM 78.2°F25.7°C 48.3°F9.1°C 35% Calm Calm -- 30.91 in1046.7 mb 0.00 in0.0 mm 0.00 in0.0 mm 0.00 in0.0 mm
12:34 AM 78.2°F25.7°C 48.3°F9.1°C 35% Calm Calm -- 30.91 in1046.7 mb 0.00 in0.0 mm 0.00 in0.0 mm 0.00 in0.0 mm
12:32 AM 78.2°F25.7°C 48.3°F9.1°C 35% Calm Calm -- 30.91 in1046.7 mb 0.00 in0.0 mm 0.00 in0.0 mm 0.00 in0.0 mm
12:31 AM 78.2°F25.7°C 48.3°F9.1°C 35% Calm Calm -- 30.91 in1046.7 mb 0.00 in0.0 mm 0.00 in0.0 mm 0.00 in0.0 mm
12:30 AM 78.2°F25.7°C 48.3°F9.1°C 35% Calm Calm -- 30.91 in1046.7 mb 0.00 in0.0 mm 0.00 in0.0 mm 0.00 in0.0 mm
12:29 AM 78.2°F25.7°C 48.3°F9.1°C 35% Calm Calm -- 30.91 in1046.7 mb 0.00 in0.0 mm 0.00 in0.0 mm 0.00 in0.0 mm
12:28 AM 78.2°F25.7°C 48.3°F9.1°C 35% Calm Calm -- 30.91 in1046.7 mb 0.00 in0.0 mm 0.00 in0.0 mm 0.00 in0.0 mm
12:27 AM 78.2°F25.7°C 48.3°F9.1°C 35% Calm Calm -- 30.91 in1046.7 mb 0.00 in0.0 mm 0.00 in0.0 mm 0.00 in0.0 mm
12:25 AM 78.0°F25.6°C 48.1°F8.9°C 35% Calm Calm -- 30.91 in1046.7 mb 0.00 in0.0 mm 0.00 in0.0 mm 0.00 in0.0 mm
12:24 AM 78.0°F25.6°C 48.1°F8.9°C 35% Calm Calm -- 30.91 in1046.7 mb 0.00 in0.0 mm 0.00 in0.0 mm 0.00 in0.0 mm
12:23 AM 78.0°F25.6°C 48.1°F8.9°C 35% Calm Calm -- 30.91 in1046.7 mb 0.00 in0.0 mm 0.00 in0.0 mm 0.00 in0.0 mm
12:21 AM 78.0°F25.6°C 48.1°F8.9°C 35% Calm Calm -- 30.91 in1046.7 mb 0.00 in0.0 mm 0.00 in0.0 mm 0.00 in0.0 mm
12:20 AM 78.0°F25.6°C 48.1°F8.9°C 35% Calm Calm -- 30.91 in1046.7 mb 0.00 in0.0 mm 0.00 in0.0 mm 0.00 in0.0 mm
12:19 AM 78.0°F25.6°C 48.1°F8.9°C 35% Calm Calm -- 30.91 in1046.7 mb 0.00 in0.0 mm 0.00 in0.0 mm 0.00 in0.0 mm
12:18 AM 78.0°F25.6°C 47.4°F8.6°C 34% Calm Calm -- 30.91 in1046.7 mb 0.00 in0.0 mm 0.00 in0.0 mm 0.00 in0.0 mm
12:16 AM 78.0°F25.6°C 47.4°F8.6°C 34% Calm Calm -- 30.91 in1046.7 mb 0.00 in0.0 mm 0.00 in0.0 mm 0.00 in0.0 mm
12:14 AM 78.0°F25.6°C 47.4°F8.6°C 34% Calm Calm -- 30.91 in1046.7 mb 0.00 in0.0 mm 0.00 in0.0 mm 0.00 in0.0 mm
12:13 AM 78.0°F25.6°C 47.4°F8.6°C 34% Calm Calm -- 30.91 in1046.7 mb 0.00 in0.0 mm 0.00 in0.0 mm 0.00 in0.0 mm
12:12 AM 78.0°F25.6°C 47.4°F8.6°C 34% Calm Calm -- 30.91 in1046.7 mb 0.00 in0.0 mm 0.00 in0.0 mm 0.00 in0.0 mm
12:10 AM 78.0°F25.6°C 47.4°F8.6°C 34% Calm Calm -- 30.91 in1046.7 mb 0.00 in0.0 mm 0.00 in0.0 mm 0.00 in0.0 mm
12:07 AM 78.2°F25.7°C 47.5°F8.6°C 34% Calm Calm -- 30.91 in1046.7 mb 0.00 in0.0 mm 0.00 in0.0 mm 0.00 in0.0 mm
12:06 AM 78.2°F25.7°C 47.5°F8.6°C 34% Calm Calm -- 30.91 in1046.7 mb 0.00 in0.0 mm 0.00 in0.0 mm 0.00 in0.0 mm
12:05 AM 78.2°F25.7°C 47.5°F8.6°C 34% Calm Calm -- 30.91 in1046.7 mb 0.00 in0.0 mm 0.00 in0.0 mm 0.00 in0.0 mm
12:04 AM 78.2°F25.7°C 47.5°F8.6°C 34% Calm Calm -- 30.91 in1046.7 mb 0.00 in0.0 mm 0.00 in0.0 mm 0.00 in0.0 mm
12:03 AM 78.3°F25.7°C 47.7°F8.7°C 34% Calm Calm -- 30.91 in1046.7 mb 0.00 in0.0 mm 0.00 in0.0 mm 0.00 in0.0 mm
12:02 AM 78.3°F25.7°C 47.7°F8.7°C 34% Calm Calm -- 30.91 in1046.7 mb 0.00 in0.0 mm 0.00 in0.0 mm 0.00 in0.0 mm
12:00 AM 78.3°F25.7°C 47.7°F8.7°C 34% Calm Calm -- 30.91 in1046.7 mb 0.00 in0.0 mm 0.00 in0.0 mm 0.00 in0.0 mm